createdAt,value
2018-08-28T00:02:13.638Z,15.30
2018-08-28T00:04:42.777Z,15.20
2018-08-28T00:07:11.640Z,15.10
2018-08-28T00:09:40.944Z,15.20
2018-08-28T00:12:10.386Z,15.20
2018-08-28T00:14:39.176Z,15.20
2018-08-28T00:17:08.888Z,15.20
2018-08-28T00:19:37.604Z,15.20
2018-08-28T00:22:06.581Z,15.20
2018-08-28T00:24:35.688Z,15.20
2018-08-28T00:27:04.643Z,15.20
2018-08-28T00:29:33.408Z,15.10
2018-08-28T00:32:02.852Z,15.10
2018-08-28T00:34:33.512Z,15.20
2018-08-28T00:37:02.352Z,15.20
2018-08-28T00:39:31.814Z,15.20
2018-08-28T00:42:01.207Z,15.10
2018-08-28T00:44:30.144Z,15.10
2018-08-28T00:47:01.265Z,15.10
2018-08-28T00:49:30.540Z,15.10
2018-08-28T00:51:59.305Z,15.00
2018-08-28T00:54:28.752Z,15.00
2018-08-28T00:56:57.871Z,15.00
2018-08-28T00:59:28.185Z,15.10
2018-08-28T01:01:56.985Z,15.10
2018-08-28T01:04:25.848Z,15.10
2018-08-28T01:06:54.832Z,15.00
2018-08-28T01:09:23.680Z,15.00
2018-08-28T01:11:52.815Z,15.00
2018-08-28T01:14:21.851Z,15.00
2018-08-28T01:16:51.306Z,15.00
2018-08-28T01:19:20.612Z,15.00
2018-08-28T01:21:49.911Z,14.90
2018-08-28T01:24:18.656Z,14.90
2018-08-28T01:26:48.031Z,14.90
2018-08-28T01:29:17.020Z,14.90
2018-08-28T01:31:45.744Z,14.90
2018-08-28T01:34:14.751Z,14.90
2018-08-28T01:36:44.368Z,14.90
2018-08-28T01:39:14.336Z,14.90
2018-08-28T01:41:43.554Z,15.10
2018-08-28T01:44:12.765Z,15.00
2018-08-28T01:46:41.619Z,14.90
2018-08-28T01:49:13.147Z,14.90
2018-08-28T01:51:42.984Z,14.90
2018-08-28T01:54:12.251Z,15.00
2018-08-28T01:56:41.024Z,15.00
2018-08-28T01:59:10.765Z,14.90
2018-08-28T02:01:42.024Z,15.00
2018-08-28T02:04:11.703Z,14.90
2018-08-28T02:06:40.777Z,14.90
2018-08-28T02:09:09.785Z,14.90
2018-08-28T02:11:38.560Z,14.90
2018-08-28T02:14:09.300Z,14.80
2018-08-28T02:16:38.400Z,14.80
2018-08-28T02:19:07.436Z,14.90
2018-08-28T02:21:36.544Z,14.90
2018-08-28T02:24:05.407Z,14.70
2018-08-28T02:26:36.578Z,14.70
2018-08-28T02:29:05.366Z,14.80
2018-08-28T02:31:34.138Z,14.70
2018-08-28T02:34:02.889Z,14.70
2018-08-28T02:36:31.876Z,14.70
2018-08-28T02:39:00.833Z,14.70
2018-08-28T02:41:29.860Z,14.70
2018-08-28T02:43:58.988Z,14.70
2018-08-28T02:46:28.217Z,14.70
2018-08-28T02:48:58.832Z,14.70
2018-08-28T02:51:27.643Z,14.70
2018-08-28T02:54:05.663Z,14.70
2018-08-28T02:56:34.431Z,14.70
2018-08-28T02:59:03.184Z,14.70
2018-08-28T03:01:33.985Z,14.60
2018-08-28T03:04:04.832Z,14.60
2018-08-28T03:06:34.700Z,14.70
2018-08-28T03:09:04.464Z,14.70
2018-08-28T03:11:33.338Z,14.70
2018-08-28T03:14:02.120Z,14.70
2018-08-28T03:16:30.888Z,14.60
2018-08-28T03:18:59.627Z,14.80
2018-08-28T03:21:28.861Z,14.80
2018-08-28T03:23:58.572Z,14.80
2018-08-28T03:26:27.439Z,14.80
2018-08-28T03:28:57.516Z,14.70
2018-08-28T03:31:26.716Z,14.70
2018-08-28T03:33:55.518Z,14.80
2018-08-28T03:36:26.156Z,14.80
2018-08-28T03:38:55.542Z,14.70
2018-08-28T03:41:24.702Z,14.70
2018-08-28T03:43:53.961Z,14.70
2018-08-28T03:46:22.755Z,14.60
2018-08-28T03:48:51.819Z,14.70
2018-08-28T03:51:20.625Z,14.60
2018-08-28T03:53:50.016Z,14.60
2018-08-28T03:56:18.724Z,14.60
2018-08-28T03:58:47.898Z,14.60
2018-08-28T04:01:17.854Z,14.60
2018-08-28T04:03:47.355Z,14.60
2018-08-28T04:06:16.451Z,14.60
2018-08-28T04:08:49.413Z,14.60
2018-08-28T04:11:18.270Z,14.60
2018-08-28T04:13:47.657Z,14.60
2018-08-28T04:16:18.504Z,14.60
2018-08-28T04:18:48.016Z,14.60
2018-08-28T04:21:17.383Z,14.50
2018-08-28T04:23:46.379Z,14.50
2018-08-28T04:26:16.035Z,14.50
2018-08-28T04:28:45.229Z,14.50
2018-08-28T04:31:14.020Z,14.50
2018-08-28T04:33:43.200Z,14.60
2018-08-28T04:36:12.433Z,14.50
2018-08-28T04:38:41.601Z,14.50
2018-08-28T04:41:10.644Z,14.60
2018-08-28T04:43:39.975Z,14.50
2018-08-28T04:46:09.040Z,14.50
2018-08-28T04:48:38.052Z,14.50
2018-08-28T04:51:06.927Z,14.50
2018-08-28T04:53:35.644Z,14.50
2018-08-28T04:56:04.685Z,14.50
2018-08-28T04:58:33.475Z,14.50
2018-08-28T05:01:02.939Z,14.50
2018-08-28T05:03:32.117Z,14.50
2018-08-28T05:06:01.268Z,14.60
2018-08-28T05:08:30.032Z,14.50
2018-08-28T05:10:59.194Z,14.50
2018-08-28T05:13:27.956Z,14.50
2018-08-28T05:15:57.428Z,14.50
2018-08-28T05:18:26.724Z,14.50
2018-08-28T05:20:55.525Z,14.50
2018-08-28T05:23:24.580Z,14.50
2018-08-28T05:25:53.343Z,14.40
2018-08-28T05:28:22.748Z,14.40
2018-08-28T05:30:51.934Z,14.40
2018-08-28T05:33:22.045Z,14.50
2018-08-28T05:35:51.081Z,14.50
2018-08-28T05:38:20.612Z,14.50
2018-08-28T05:40:49.904Z,14.50
2018-08-28T05:43:18.928Z,14.50
2018-08-28T05:45:49.405Z,14.50
2018-08-28T05:48:18.748Z,14.40
2018-08-28T05:50:48.052Z,14.50
2018-08-28T05:53:18.079Z,14.60
2018-08-28T05:55:47.842Z,14.50
2018-08-28T05:58:16.604Z,14.50
2018-08-28T06:00:45.867Z,14.50
2018-08-28T06:03:14.736Z,14.60
2018-08-28T06:05:43.736Z,14.60
2018-08-28T06:08:13.707Z,14.60
2018-08-28T06:10:43.424Z,14.60
2018-08-28T06:13:12.641Z,14.70
2018-08-28T06:15:41.471Z,14.70
2018-08-28T06:18:12.496Z,14.80
2018-08-28T06:20:43.877Z,14.70
2018-08-28T06:23:12.799Z,14.80
2018-08-28T06:25:41.853Z,14.80
2018-08-28T06:28:10.726Z,14.90
2018-08-28T06:30:42.186Z,14.90
2018-08-28T06:33:11.452Z,14.90
2018-08-28T06:35:46.814Z,15.00
2018-08-28T06:38:16.970Z,15.00
2018-08-28T06:40:45.759Z,15.00
2018-08-28T06:43:14.548Z,15.10
2018-08-28T06:45:43.431Z,15.10
2018-08-28T06:48:12.846Z,15.20
2018-08-28T06:50:42.389Z,15.20
2018-08-28T06:53:11.268Z,15.20
2018-08-28T06:55:42.526Z,15.20
2018-08-28T06:58:11.716Z,15.30
2018-08-28T07:00:41.157Z,15.40
2018-08-28T07:03:10.316Z,15.40
2018-08-28T07:05:39.356Z,15.50
2018-08-28T07:08:08.460Z,15.60
2018-08-28T07:10:37.201Z,15.70
2018-08-28T07:13:08.862Z,15.80
2018-08-28T07:15:37.796Z,15.80
2018-08-28T07:18:06.985Z,15.90
2018-08-28T07:20:36.032Z,15.90
2018-08-28T07:23:05.471Z,16.00
2018-08-28T07:25:35.244Z,16.00
2018-08-28T07:28:04.021Z,16.10
2018-08-28T07:30:33.672Z,16.10
2018-08-28T07:33:02.448Z,16.10
2018-08-28T07:35:31.505Z,16.20
2018-08-28T07:38:02.347Z,16.20
2018-08-28T07:40:33.241Z,16.40
2018-08-28T07:43:02.340Z,16.40
2018-08-28T07:45:31.267Z,16.50
2018-08-28T07:48:00.000Z,16.50
2018-08-28T07:50:29.672Z,16.50
2018-08-28T07:53:00.121Z,16.60
2018-08-28T07:55:29.203Z,16.70
2018-08-28T07:57:58.429Z,16.70
2018-08-28T08:00:28.396Z,16.70
2018-08-28T08:03:00.483Z,16.80
2018-08-28T08:05:31.080Z,16.80
2018-08-28T08:08:00.248Z,16.70
2018-08-28T08:10:28.990Z,16.70
2018-08-28T08:12:58.708Z,16.60
2018-08-28T08:15:28.449Z,16.70
2018-08-28T08:17:57.200Z,16.70
2018-08-28T08:20:26.212Z,16.70
2018-08-28T08:22:55.089Z,16.80
2018-08-28T08:25:25.184Z,16.80
2018-08-28T08:27:55.459Z,16.90
2018-08-28T08:30:24.346Z,16.80
2018-08-28T08:32:53.448Z,16.80
2018-08-28T08:35:22.747Z,16.90
2018-08-28T08:37:51.569Z,17.10
2018-08-28T08:40:20.391Z,17.20
2018-08-28T08:42:49.657Z,17.20
2018-08-28T08:45:18.477Z,17.20
2018-08-28T08:47:47.973Z,17.20
2018-08-28T08:50:17.981Z,17.30
2018-08-28T08:52:46.901Z,17.30
2018-08-28T08:55:15.928Z,17.30
2018-08-28T08:57:44.724Z,17.30
2018-08-28T09:00:13.649Z,17.20
2018-08-28T09:02:48.928Z,17.20
2018-08-28T09:05:19.192Z,17.20
2018-08-28T09:07:48.231Z,17.30
2018-08-28T09:10:16.972Z,17.40
2018-08-28T09:12:45.994Z,17.40
2018-08-28T09:15:14.989Z,17.40
2018-08-28T09:17:44.392Z,17.50
2018-08-28T09:20:13.476Z,17.50
2018-08-28T09:22:42.435Z,17.60
2018-08-28T09:25:11.478Z,17.80
2018-08-28T09:27:40.872Z,17.80
2018-08-28T09:30:09.907Z,18.00
2018-08-28T09:32:40.271Z,18.00
2018-08-28T09:35:11.080Z,18.00
2018-08-28T09:37:40.268Z,17.80
2018-08-28T09:40:09.030Z,17.70
2018-08-28T09:42:38.017Z,17.50
2018-08-28T09:45:06.953Z,17.50
2018-08-28T09:47:38.942Z,17.50
2018-08-28T09:50:08.722Z,17.60
2018-08-28T09:52:38.004Z,17.60
2018-08-28T09:55:06.728Z,17.60
2018-08-28T09:57:35.536Z,17.70
2018-08-28T10:00:05.203Z,17.70
2018-08-28T10:02:36.499Z,17.60
2018-08-28T10:05:05.384Z,17.80
2018-08-28T10:07:34.568Z,17.80
2018-08-28T10:10:03.624Z,17.80
2018-08-28T10:12:32.385Z,17.70
2018-08-28T10:15:02.925Z,17.80
2018-08-28T10:17:31.937Z,18.00
2018-08-28T10:20:00.696Z,17.90
2018-08-28T10:22:29.970Z,18.00
2018-08-28T10:24:59.506Z,18.10
2018-08-28T10:27:28.556Z,18.20
2018-08-28T10:29:58.726Z,18.40
2018-08-28T10:32:27.739Z,18.40
2018-08-28T10:34:56.776Z,18.50
2018-08-28T10:37:25.573Z,18.60
2018-08-28T10:39:54.875Z,18.50
2018-08-28T10:42:24.942Z,18.50
2018-08-28T10:44:57.817Z,18.50
2018-08-28T10:47:29.090Z,18.60
2018-08-28T10:49:58.236Z,18.60
2018-08-28T10:52:26.993Z,18.70
2018-08-28T10:54:55.712Z,18.90
2018-08-28T10:57:24.461Z,18.70
2018-08-28T10:59:54.527Z,18.90
2018-08-28T11:02:23.309Z,18.90
2018-08-28T11:04:52.388Z,18.90
2018-08-28T11:07:21.566Z,18.90
2018-08-28T11:09:51.116Z,18.90
2018-08-28T11:12:20.419Z,18.90
2018-08-28T11:14:49.386Z,18.90
2018-08-28T11:17:18.737Z,19.00
2018-08-28T11:19:52.021Z,19.00
2018-08-28T11:22:22.453Z,18.90
2018-08-28T11:24:51.589Z,19.00
2018-08-28T11:27:24.799Z,19.00
2018-08-28T11:29:54.446Z,19.20
2018-08-28T11:32:23.542Z,19.40
2018-08-28T11:34:53.051Z,19.40
2018-08-28T11:37:23.572Z,19.50
2018-08-28T11:39:52.384Z,19.50
2018-08-28T11:42:26.016Z,19.30
2018-08-28T11:44:55.813Z,19.40
2018-08-28T11:47:24.876Z,19.30
2018-08-28T11:49:54.767Z,19.20
2018-08-28T11:52:23.708Z,19.10
2018-08-28T11:54:52.766Z,19.00
2018-08-28T11:57:21.600Z,19.10
2018-08-28T11:59:50.679Z,19.20
2018-08-28T12:02:20.740Z,19.20
2018-08-28T12:04:59.885Z,19.40
2018-08-28T12:07:28.956Z,19.50
2018-08-28T12:09:58.217Z,19.70
2018-08-28T12:12:27.013Z,19.80
2018-08-28T12:14:55.782Z,19.80
2018-08-28T12:17:28.104Z,19.70
2018-08-28T12:19:58.541Z,19.80
2018-08-28T12:22:27.750Z,19.60
2018-08-28T12:24:56.875Z,19.60
2018-08-28T12:27:26.016Z,19.60
2018-08-28T12:29:57.530Z,19.60
2018-08-28T12:32:28.706Z,19.50
2018-08-28T12:34:57.905Z,19.50
2018-08-28T12:37:26.858Z,19.40
2018-08-28T12:39:55.646Z,19.30
2018-08-28T12:42:25.304Z,19.20
2018-08-28T12:44:54.488Z,19.10
2018-08-28T12:47:23.641Z,19.20
2018-08-28T12:49:52.764Z,19.30
2018-08-28T12:52:21.940Z,19.30
2018-08-28T12:54:51.714Z,19.30
2018-08-28T12:57:20.707Z,19.50
2018-08-28T12:59:49.773Z,19.80
2018-08-28T13:02:19.026Z,20.20
2018-08-28T13:04:48.096Z,20.30
2018-08-28T13:07:17.463Z,20.30
2018-08-28T13:09:46.439Z,20.40
2018-08-28T13:12:16.563Z,20.30
2018-08-28T13:14:46.894Z,20.30
2018-08-28T13:17:15.640Z,20.30
2018-08-28T13:19:45.375Z,20.30
2018-08-28T13:22:14.424Z,20.20
2018-08-28T13:24:43.280Z,20.30
2018-08-28T13:27:13.601Z,20.30
2018-08-28T13:29:42.511Z,20.40
2018-08-28T13:32:11.327Z,20.50
2018-08-28T13:34:40.053Z,20.60
2018-08-28T13:37:08.972Z,20.40
2018-08-28T13:39:37.724Z,20.60
2018-08-28T13:42:06.892Z,20.50
2018-08-28T13:44:35.700Z,20.40
2018-08-28T13:47:05.006Z,20.40
2018-08-28T13:49:33.850Z,20.50
2018-08-28T13:52:02.632Z,20.50
2018-08-28T13:54:31.677Z,20.40
2018-08-28T13:57:01.279Z,20.30
2018-08-28T13:59:30.476Z,20.40
2018-08-28T14:01:59.796Z,20.50
2018-08-28T14:04:28.923Z,20.40
2018-08-28T14:06:58.026Z,20.50
2018-08-28T14:09:27.309Z,20.50
2018-08-28T14:11:59.452Z,20.50
2018-08-28T14:14:29.201Z,20.50
2018-08-28T14:16:58.137Z,20.50
2018-08-28T14:19:27.293Z,20.40
2018-08-28T14:21:56.161Z,20.50
2018-08-28T14:24:25.219Z,20.50
2018-08-28T14:27:00.571Z,20.60
2018-08-28T14:29:30.438Z,20.70
2018-08-28T14:31:59.980Z,20.60
2018-08-28T14:34:28.928Z,20.60
2018-08-28T14:36:59.341Z,20.50
2018-08-28T14:39:29.632Z,20.30
2018-08-28T14:42:02.950Z,20.20
2018-08-28T14:44:32.342Z,20.10
2018-08-28T14:47:01.352Z,20.10
2018-08-28T14:49:31.139Z,20.10
2018-08-28T14:52:00.331Z,20.20
2018-08-28T14:54:29.381Z,20.20
2018-08-28T14:57:01.000Z,20.40
2018-08-28T14:59:31.258Z,20.40
2018-08-28T15:02:00.719Z,20.50
2018-08-28T15:04:29.851Z,20.30
2018-08-28T15:06:59.402Z,20.20
2018-08-28T15:09:28.484Z,20.20
2018-08-28T15:11:58.784Z,20.20
2018-08-28T15:14:28.054Z,20.20
2018-08-28T15:16:57.477Z,20.20
2018-08-28T15:19:26.260Z,20.30
2018-08-28T15:21:55.299Z,20.20
2018-08-28T15:24:24.224Z,20.30
2018-08-28T15:26:53.056Z,20.40
2018-08-28T15:29:21.913Z,20.40
2018-08-28T15:31:52.635Z,20.30
2018-08-28T15:34:22.076Z,20.40
2018-08-28T15:36:50.969Z,20.50
2018-08-28T15:39:19.815Z,20.50
2018-08-28T15:41:48.992Z,20.40
2018-08-28T15:44:17.899Z,20.40
2018-08-28T15:46:46.774Z,20.30
2018-08-28T15:49:16.032Z,20.20
2018-08-28T15:51:45.036Z,20.20
2018-08-28T15:54:14.854Z,20.10
2018-08-28T15:56:44.150Z,20.00
2018-08-28T15:59:13.059Z,20.10
2018-08-28T16:01:42.828Z,20.10
2018-08-28T16:04:15.828Z,20.00
2018-08-28T16:06:45.031Z,20.00
2018-08-28T16:09:15.706Z,20.00
2018-08-28T16:11:44.927Z,19.90
2018-08-28T16:14:14.954Z,19.90
2018-08-28T16:16:44.500Z,19.90
2018-08-28T16:19:13.905Z,19.90
2018-08-28T16:21:53.836Z,19.80
2018-08-28T16:24:26.725Z,19.80
2018-08-28T16:26:55.855Z,19.80
2018-08-28T16:29:25.019Z,19.80
2018-08-28T16:31:53.974Z,19.80
2018-08-28T16:34:23.701Z,19.80
2018-08-28T16:36:52.658Z,19.80
2018-08-28T16:39:21.550Z,19.80
2018-08-28T16:41:50.661Z,19.70
2018-08-28T16:44:19.679Z,19.70
2018-08-28T16:46:48.600Z,19.70
2018-08-28T16:49:18.696Z,19.70
2018-08-28T16:51:47.905Z,19.60
2018-08-28T16:54:16.791Z,19.50
2018-08-28T16:56:45.682Z,19.50
2018-08-28T16:59:15.693Z,19.40
2018-08-28T17:01:44.762Z,19.30
2018-08-28T17:04:24.627Z,19.30
2018-08-28T17:06:53.523Z,19.20
2018-08-28T17:09:22.800Z,19.10
2018-08-28T17:11:52.031Z,19.00
2018-08-28T17:14:21.052Z,18.90
2018-08-28T17:16:51.333Z,18.90
2018-08-28T17:19:21.965Z,18.80
2018-08-28T17:21:51.209Z,18.80
2018-08-28T17:24:20.503Z,18.80
2018-08-28T17:26:51.214Z,18.70
2018-08-28T17:29:20.033Z,18.70
2018-08-28T17:31:49.350Z,18.70
2018-08-28T17:34:22.134Z,18.60
2018-08-28T17:36:51.771Z,18.60
2018-08-28T17:39:20.619Z,18.60
2018-08-28T17:41:53.692Z,18.50
2018-08-28T17:44:22.924Z,18.50
2018-08-28T17:46:51.857Z,18.40
2018-08-28T17:49:22.057Z,18.30
2018-08-28T17:51:50.951Z,18.20
2018-08-28T17:54:20.594Z,18.20
2018-08-28T17:56:49.765Z,18.10
2018-08-28T17:59:18.724Z,18.00
2018-08-28T18:01:52.406Z,18.00
2018-08-28T18:04:21.424Z,17.90
2018-08-28T18:06:51.896Z,17.80
2018-08-28T18:09:22.154Z,17.80
2018-08-28T18:11:51.198Z,17.80
2018-08-28T18:14:20.395Z,17.70
2018-08-28T18:16:49.379Z,17.70
2018-08-28T18:19:18.696Z,17.60
2018-08-28T18:21:50.160Z,17.60
2018-08-28T18:24:21.876Z,17.50
2018-08-28T18:26:51.054Z,17.50
2018-08-28T18:29:20.056Z,17.40
2018-08-28T18:31:49.166Z,17.40
2018-08-28T18:34:19.478Z,17.40
2018-08-28T18:36:48.966Z,17.40
2018-08-28T18:39:20.610Z,17.40
2018-08-28T18:41:49.544Z,17.30
2018-08-28T18:44:19.780Z,17.10
2018-08-28T18:46:51.007Z,16.90
2018-08-28T18:49:20.221Z,16.70
2018-08-28T18:51:49.987Z,16.60
2018-08-28T18:54:18.989Z,16.50
2018-08-28T18:56:48.370Z,16.40
2018-08-28T18:59:18.161Z,16.30
2018-08-28T19:01:48.684Z,16.30
2018-08-28T19:04:18.168Z,16.20
2018-08-28T19:06:47.710Z,16.10
2018-08-28T19:09:16.736Z,16.10
2018-08-28T19:11:46.109Z,16.00
2018-08-28T19:14:15.564Z,15.90
2018-08-28T19:16:45.118Z,15.80
2018-08-28T19:19:14.404Z,15.80
2018-08-28T19:21:43.787Z,15.70
2018-08-28T19:24:13.493Z,15.60
2018-08-28T19:26:44.088Z,15.60
2018-08-28T19:29:14.081Z,15.60
2018-08-28T19:31:43.303Z,15.70
2018-08-28T19:34:12.249Z,15.80
2018-08-28T19:36:43.211Z,15.90
2018-08-28T19:39:14.045Z,15.70
2018-08-28T19:41:43.149Z,15.70
2018-08-28T19:44:12.675Z,15.60
2018-08-28T19:46:42.677Z,15.60
2018-08-28T19:49:12.119Z,15.60
2018-08-28T19:51:41.533Z,15.40
2018-08-28T19:54:10.936Z,15.20
2018-08-28T19:56:40.482Z,15.00
2018-08-28T19:59:09.513Z,14.80
2018-08-28T20:01:38.512Z,14.60
2018-08-28T20:04:07.516Z,14.50
2018-08-28T20:06:36.572Z,14.50
2018-08-28T20:09:07.247Z,14.30
2018-08-28T20:11:36.584Z,14.30
2018-08-28T20:14:05.939Z,14.30
2018-08-28T20:16:35.207Z,14.50
2018-08-28T20:19:09.407Z,14.40
2018-08-28T20:21:42.157Z,14.40
2018-08-28T20:24:11.096Z,14.30
2018-08-28T20:26:40.551Z,14.30
2018-08-28T20:29:09.690Z,14.20
2018-08-28T20:31:38.665Z,14.20
2018-08-28T20:34:10.498Z,14.20
2018-08-28T20:36:40.986Z,14.20
2018-08-28T20:39:10.507Z,14.20
2018-08-28T20:41:39.839Z,14.20
2018-08-28T20:44:08.743Z,14.30
2018-08-28T20:46:39.809Z,14.40
2018-08-28T20:49:10.777Z,14.40
2018-08-28T20:51:39.966Z,14.40
2018-08-28T20:54:09.022Z,14.50
2018-08-28T20:56:38.864Z,14.50
2018-08-28T20:59:08.856Z,14.60
2018-08-28T21:01:38.007Z,14.50
2018-08-28T21:04:07.109Z,14.60
2018-08-28T21:06:36.412Z,14.60
2018-08-28T21:09:06.278Z,14.70
2018-08-28T21:11:35.099Z,14.80
2018-08-28T21:14:06.344Z,14.70
2018-08-28T21:16:35.764Z,14.60
2018-08-28T21:19:04.595Z,14.70
2018-08-28T21:21:33.397Z,15.00
2018-08-28T21:24:02.248Z,14.80
2018-08-28T21:26:34.871Z,14.60
2018-08-28T21:29:03.866Z,14.70
2018-08-28T21:31:33.081Z,14.60
2018-08-28T21:34:02.368Z,14.60
2018-08-28T21:36:31.169Z,14.50
2018-08-28T21:39:00.581Z,14.60
2018-08-28T21:41:30.375Z,14.40
2018-08-28T21:44:00.244Z,14.50
2018-08-28T21:46:29.236Z,14.40
2018-08-28T21:48:58.399Z,14.30
2018-08-28T21:51:30.824Z,14.20
2018-08-28T21:53:59.572Z,14.10
2018-08-28T21:56:28.333Z,14.10
2018-08-28T21:58:59.354Z,14.10
2018-08-28T22:01:31.654Z,14.10
2018-08-28T22:04:00.786Z,14.00
2018-08-28T22:06:35.601Z,13.90
2018-08-28T22:09:05.088Z,13.90
2018-08-28T22:11:34.652Z,13.90
2018-08-28T22:14:03.516Z,13.80
2018-08-28T22:16:32.782Z,13.80
2018-08-28T22:19:03.002Z,13.80
2018-08-28T22:21:31.737Z,13.80
2018-08-28T22:24:00.774Z,13.80
2018-08-28T22:26:29.531Z,13.70
2018-08-28T22:28:58.609Z,13.70
2018-08-28T22:31:27.352Z,13.70
2018-08-28T22:33:57.260Z,13.80
2018-08-28T22:36:27.243Z,13.80
2018-08-28T22:38:57.378Z,13.80
2018-08-28T22:41:26.394Z,13.80
2018-08-28T22:43:55.164Z,13.80
2018-08-28T22:46:24.120Z,13.80
2018-08-28T22:48:52.989Z,13.70
2018-08-28T22:51:21.999Z,13.70
2018-08-28T22:53:51.660Z,13.70
2018-08-28T22:56:20.392Z,13.70
2018-08-28T22:58:49.187Z,13.70
2018-08-28T23:01:18.394Z,13.70
2018-08-28T23:03:48.142Z,13.70
2018-08-28T23:06:16.934Z,13.60
2018-08-28T23:08:46.488Z,13.60
2018-08-28T23:11:15.677Z,13.60
2018-08-28T23:13:45.064Z,13.50
2018-08-28T23:16:13.873Z,13.50
2018-08-28T23:18:42.668Z,13.50
2018-08-28T23:21:12.030Z,13.50
2018-08-28T23:23:41.332Z,13.50
2018-08-28T23:26:10.504Z,13.50
2018-08-28T23:28:39.751Z,13.50
2018-08-28T23:31:09.036Z,13.50
2018-08-28T23:33:38.103Z,13.50
2018-08-28T23:36:07.951Z,13.50
2018-08-28T23:38:36.907Z,13.60
2018-08-28T23:41:06.034Z,13.60
2018-08-28T23:43:35.313Z,13.70
2018-08-28T23:46:04.529Z,13.70
2018-08-28T23:48:34.356Z,13.60
2018-08-28T23:51:03.172Z,13.70
2018-08-28T23:53:32.168Z,13.60
2018-08-28T23:56:01.718Z,13.60
2018-08-28T23:58:30.767Z,13.60
